sensor_id;sensor_type;location;lat;lon;timestamp;P1;durP1;ratioP1;P2;durP2;ratioP2
9960;SDS011;5021;51.506;11.320;2022-08-19T00:01:42;26.60;;;23.80;;
9960;SDS011;5021;51.506;11.320;2022-08-19T00:04:11;26.57;;;23.77;;
9960;SDS011;5021;51.506;11.320;2022-08-19T00:06:37;26.93;;;24.20;;
9960;SDS011;5021;51.506;11.320;2022-08-19T00:09:05;29.27;;;26.20;;
9960;SDS011;5021;51.506;11.320;2022-08-19T00:11:31;28.53;;;25.63;;
9960;SDS011;5021;51.506;11.320;2022-08-19T00:13:59;27.83;;;24.83;;
9960;SDS011;5021;51.506;11.320;2022-08-19T00:16:26;27.63;;;24.73;;
9960;SDS011;5021;51.506;11.320;2022-08-19T00:18:53;28.63;;;25.40;;
9960;SDS011;5021;51.506;11.320;2022-08-19T00:21:20;28.87;;;25.90;;
9960;SDS011;5021;51.506;11.320;2022-08-19T00:23:46;26.43;;;23.83;;
9960;SDS011;5021;51.506;11.320;2022-08-19T00:26:12;28.13;;;25.23;;
9960;SDS011;5021;51.506;11.320;2022-08-19T00:28:38;26.30;;;23.77;;
9960;SDS011;5021;51.506;11.320;2022-08-19T00:31:05;27.77;;;25.07;;
9960;SDS011;5021;51.506;11.320;2022-08-19T00:33:31;27.73;;;25.13;;
9960;SDS011;5021;51.506;11.320;2022-08-19T00:36:02;26.17;;;23.63;;
9960;SDS011;5021;51.506;11.320;2022-08-19T00:38:29;26.87;;;24.30;;
9960;SDS011;5021;51.506;11.320;2022-08-19T00:40:55;27.67;;;24.97;;
9960;SDS011;5021;51.506;11.320;2022-08-19T00:43:22;28.30;;;25.30;;
9960;SDS011;5021;51.506;11.320;2022-08-19T00:45:49;26.30;;;23.77;;
9960;SDS011;5021;51.506;11.320;2022-08-19T00:48:15;25.73;;;23.23;;
9960;SDS011;5021;51.506;11.320;2022-08-19T00:50:42;27.20;;;24.53;;
9960;SDS011;5021;51.506;11.320;2022-08-19T00:53:09;25.97;;;23.53;;
9960;SDS011;5021;51.506;11.320;2022-08-19T00:55:36;27.37;;;24.57;;
9960;SDS011;5021;51.506;11.320;2022-08-19T00:58:04;27.37;;;24.73;;
9960;SDS011;5021;51.506;11.320;2022-08-19T01:00:32;28.43;;;25.63;;
9960;SDS011;5021;51.506;11.320;2022-08-19T01:03:01;27.83;;;25.17;;
9960;SDS011;5021;51.506;11.320;2022-08-19T01:05:27;29.60;;;26.83;;
9960;SDS011;5021;51.506;11.320;2022-08-19T01:07:55;29.20;;;26.20;;
9960;SDS011;5021;51.506;11.320;2022-08-19T01:10:23;29.70;;;26.87;;
9960;SDS011;5021;51.506;11.320;2022-08-19T01:12:51;30.03;;;26.97;;
9960;SDS011;5021;51.506;11.320;2022-08-19T01:15:19;29.90;;;26.97;;
9960;SDS011;5021;51.506;11.320;2022-08-19T01:17:45;29.97;;;27.13;;
9960;SDS011;5021;51.506;11.320;2022-08-19T01:20:17;31.77;;;28.73;;
9960;SDS011;5021;51.506;11.320;2022-08-19T01:22:45;31.53;;;28.40;;
9960;SDS011;5021;51.506;11.320;2022-08-19T01:25:12;31.80;;;28.60;;
9960;SDS011;5021;51.506;11.320;2022-08-19T01:27:39;33.47;;;30.17;;
9960;SDS011;5021;51.506;11.320;2022-08-19T01:30:06;32.00;;;28.87;;
9960;SDS011;5021;51.506;11.320;2022-08-19T01:32:32;32.67;;;29.23;;
9960;SDS011;5021;51.506;11.320;2022-08-19T01:34:58;33.90;;;30.70;;
9960;SDS011;5021;51.506;11.320;2022-08-19T01:37:27;33.03;;;29.87;;
9960;SDS011;5021;51.506;11.320;2022-08-19T01:39:53;33.17;;;29.80;;
9960;SDS011;5021;51.506;11.320;2022-08-19T01:42:19;34.27;;;30.67;;
9960;SDS011;5021;51.506;11.320;2022-08-19T01:44:47;35.77;;;32.43;;
9960;SDS011;5021;51.506;11.320;2022-08-19T01:47:13;33.00;;;29.73;;
9960;SDS011;5021;51.506;11.320;2022-08-19T01:49:41;34.40;;;30.90;;
9960;SDS011;5021;51.506;11.320;2022-08-19T01:52:07;36.33;;;32.60;;
9960;SDS011;5021;51.506;11.320;2022-08-19T01:54:33;36.10;;;32.43;;
9960;SDS011;5021;51.506;11.320;2022-08-19T01:57:00;38.50;;;32.60;;
9960;SDS011;5021;51.506;11.320;2022-08-19T01:59:27;34.60;;;31.50;;
9960;SDS011;5021;51.506;11.320;2022-08-19T02:01:53;35.97;;;32.37;;
9960;SDS011;5021;51.506;11.320;2022-08-19T02:04:19;34.93;;;31.63;;
9960;SDS011;5021;51.506;11.320;2022-08-19T02:06:45;36.57;;;33.03;;
9960;SDS011;5021;51.506;11.320;2022-08-19T02:09:13;37.17;;;33.53;;
9960;SDS011;5021;51.506;11.320;2022-08-19T02:11:39;35.07;;;31.67;;
9960;SDS011;5021;51.506;11.320;2022-08-19T02:14:07;37.97;;;34.37;;
9960;SDS011;5021;51.506;11.320;2022-08-19T02:16:33;36.30;;;32.63;;
9960;SDS011;5021;51.506;11.320;2022-08-19T02:18:59;37.27;;;33.63;;
9960;SDS011;5021;51.506;11.320;2022-08-19T02:21:26;36.47;;;33.00;;
9960;SDS011;5021;51.506;11.320;2022-08-19T02:23:52;33.07;;;29.97;;
9960;SDS011;5021;51.506;11.320;2022-08-19T02:26:18;35.37;;;31.83;;
9960;SDS011;5021;51.506;11.320;2022-08-19T02:28:45;35.47;;;31.97;;
9960;SDS011;5021;51.506;11.320;2022-08-19T02:31:11;34.40;;;31.00;;
9960;SDS011;5021;51.506;11.320;2022-08-19T02:33:39;33.40;;;30.13;;
9960;SDS011;5021;51.506;11.320;2022-08-19T02:36:06;34.40;;;31.03;;
9960;SDS011;5021;51.506;11.320;2022-08-19T02:38:32;34.27;;;30.80;;
9960;SDS011;5021;51.506;11.320;2022-08-19T02:41:00;36.27;;;32.67;;
9960;SDS011;5021;51.506;11.320;2022-08-19T02:43:28;33.77;;;30.37;;
9960;SDS011;5021;51.506;11.320;2022-08-19T02:45:54;33.40;;;30.07;;
9960;SDS011;5021;51.506;11.320;2022-08-19T02:48:21;33.30;;;30.07;;
9960;SDS011;5021;51.506;11.320;2022-08-19T02:50:48;32.77;;;29.57;;
9960;SDS011;5021;51.506;11.320;2022-08-19T02:53:19;33.27;;;29.87;;
9960;SDS011;5021;51.506;11.320;2022-08-19T02:55:47;32.03;;;28.60;;
9960;SDS011;5021;51.506;11.320;2022-08-19T02:58:13;35.33;;;31.83;;
9960;SDS011;5021;51.506;11.320;2022-08-19T03:00:48;33.60;;;30.20;;
9960;SDS011;5021;51.506;11.320;2022-08-19T03:03:15;32.03;;;28.73;;
9960;SDS011;5021;51.506;11.320;2022-08-19T03:05:41;32.90;;;29.13;;
9960;SDS011;5021;51.506;11.320;2022-08-19T03:08:08;30.97;;;27.67;;
9960;SDS011;5021;51.506;11.320;2022-08-19T03:10:55;31.60;;;28.40;;
9960;SDS011;5021;51.506;11.320;2022-08-19T03:13:21;31.97;;;28.67;;
9960;SDS011;5021;51.506;11.320;2022-08-19T03:15:48;32.03;;;28.70;;
9960;SDS011;5021;51.506;11.320;2022-08-19T03:18:14;30.77;;;27.70;;
9960;SDS011;5021;51.506;11.320;2022-08-19T03:20:44;31.53;;;28.37;;
9960;SDS011;5021;51.506;11.320;2022-08-19T03:23:11;30.43;;;27.20;;
9960;SDS011;5021;51.506;11.320;2022-08-19T03:25:41;31.80;;;28.63;;
9960;SDS011;5021;51.506;11.320;2022-08-19T03:28:08;30.97;;;27.57;;
9960;SDS011;5021;51.506;11.320;2022-08-19T03:30:34;30.67;;;27.67;;
9960;SDS011;5021;51.506;11.320;2022-08-19T03:33:00;32.33;;;29.33;;
9960;SDS011;5021;51.506;11.320;2022-08-19T03:35:26;30.70;;;27.53;;
9960;SDS011;5021;51.506;11.320;2022-08-19T03:37:52;29.37;;;26.37;;
9960;SDS011;5021;51.506;11.320;2022-08-19T03:40:18;29.90;;;26.77;;
9960;SDS011;5021;51.506;11.320;2022-08-19T03:42:45;30.50;;;27.50;;
9960;SDS011;5021;51.506;11.320;2022-08-19T03:45:11;31.67;;;27.93;;
9960;SDS011;5021;51.506;11.320;2022-08-19T03:47:37;28.57;;;25.67;;
9960;SDS011;5021;51.506;11.320;2022-08-19T03:50:03;29.27;;;26.33;;
9960;SDS011;5021;51.506;11.320;2022-08-19T03:52:29;28.93;;;26.13;;
9960;SDS011;5021;51.506;11.320;2022-08-19T03:54:55;29.33;;;26.57;;
9960;SDS011;5021;51.506;11.320;2022-08-19T03:57:21;28.50;;;25.70;;
9960;SDS011;5021;51.506;11.320;2022-08-19T03:59:47;30.13;;;27.17;;
9960;SDS011;5021;51.506;11.320;2022-08-19T04:02:13;28.43;;;25.70;;
9960;SDS011;5021;51.506;11.320;2022-08-19T04:04:40;29.57;;;26.77;;
9960;SDS011;5021;51.506;11.320;2022-08-19T04:07:08;29.80;;;26.93;;
9960;SDS011;5021;51.506;11.320;2022-08-19T04:09:34;28.10;;;25.30;;
9960;SDS011;5021;51.506;11.320;2022-08-19T04:12:01;29.80;;;26.90;;
9960;SDS011;5021;51.506;11.320;2022-08-19T04:14:30;29.83;;;27.03;;
9960;SDS011;5021;51.506;11.320;2022-08-19T04:16:57;27.97;;;25.17;;
9960;SDS011;5021;51.506;11.320;2022-08-19T04:19:23;25.67;;;23.33;;
9960;SDS011;5021;51.506;11.320;2022-08-19T04:21:50;24.60;;;22.30;;
9960;SDS011;5021;51.506;11.320;2022-08-19T04:24:17;26.20;;;23.90;;
9960;SDS011;5021;51.506;11.320;2022-08-19T04:26:44;24.03;;;21.83;;
9960;SDS011;5021;51.506;11.320;2022-08-19T04:29:12;27.50;;;24.70;;
9960;SDS011;5021;51.506;11.320;2022-08-19T04:31:39;25.17;;;22.87;;
9960;SDS011;5021;51.506;11.320;2022-08-19T04:34:07;23.53;;;21.40;;
9960;SDS011;5021;51.506;11.320;2022-08-19T04:36:33;24.10;;;21.83;;
9960;SDS011;5021;51.506;11.320;2022-08-19T04:39:03;23.60;;;21.43;;
9960;SDS011;5021;51.506;11.320;2022-08-19T04:41:29;22.40;;;20.47;;
9960;SDS011;5021;51.506;11.320;2022-08-19T04:44:13;21.83;;;19.80;;
9960;SDS011;5021;51.506;11.320;2022-08-19T04:46:43;22.20;;;19.97;;
9960;SDS011;5021;51.506;11.320;2022-08-19T04:49:09;21.63;;;19.73;;
9960;SDS011;5021;51.506;11.320;2022-08-19T04:51:36;21.47;;;19.37;;
9960;SDS011;5021;51.506;11.320;2022-08-19T04:54:02;20.53;;;18.60;;
9960;SDS011;5021;51.506;11.320;2022-08-19T04:56:28;20.20;;;17.77;;
9960;SDS011;5021;51.506;11.320;2022-08-19T04:58:55;20.13;;;18.27;;
9960;SDS011;5021;51.506;11.320;2022-08-19T05:01:26;20.53;;;18.53;;
9960;SDS011;5021;51.506;11.320;2022-08-19T05:03:53;19.53;;;17.90;;
9960;SDS011;5021;51.506;11.320;2022-08-19T05:06:20;20.30;;;18.43;;
9960;SDS011;5021;51.506;11.320;2022-08-19T05:08:46;21.27;;;19.03;;
9960;SDS011;5021;51.506;11.320;2022-08-19T05:11:16;19.30;;;17.60;;
9960;SDS011;5021;51.506;11.320;2022-08-19T05:13:44;18.93;;;17.20;;
9960;SDS011;5021;51.506;11.320;2022-08-19T05:16:11;19.70;;;17.77;;
9960;SDS011;5021;51.506;11.320;2022-08-19T05:18:37;20.77;;;18.77;;
9960;SDS011;5021;51.506;11.320;2022-08-19T05:21:22;18.07;;;16.37;;
9960;SDS011;5021;51.506;11.320;2022-08-19T05:24:07;17.13;;;15.60;;
9960;SDS011;5021;51.506;11.320;2022-08-19T05:26:34;18.00;;;16.27;;
9960;SDS011;5021;51.506;11.320;2022-08-19T05:29:00;17.53;;;15.83;;
9960;SDS011;5021;51.506;11.320;2022-08-19T05:31:26;17.50;;;15.80;;
9960;SDS011;5021;51.506;11.320;2022-08-19T05:33:52;16.13;;;13.87;;
9960;SDS011;5021;51.506;11.320;2022-08-19T05:36:18;15.73;;;14.17;;
9960;SDS011;5021;51.506;11.320;2022-08-19T05:38:45;14.43;;;13.20;;
9960;SDS011;5021;51.506;11.320;2022-08-19T05:41:13;15.20;;;13.60;;
9960;SDS011;5021;51.506;11.320;2022-08-19T05:43:39;13.67;;;12.03;;
9960;SDS011;5021;51.506;11.320;2022-08-19T05:46:06;14.30;;;13.00;;
9960;SDS011;5021;51.506;11.320;2022-08-19T05:48:32;13.93;;;12.20;;
9960;SDS011;5021;51.506;11.320;2022-08-19T05:51:02;12.87;;;11.67;;
9960;SDS011;5021;51.506;11.320;2022-08-19T05:53:29;12.30;;;11.10;;
9960;SDS011;5021;51.506;11.320;2022-08-19T05:55:54;11.70;;;10.50;;
9960;SDS011;5021;51.506;11.320;2022-08-19T05:58:20;12.17;;;10.97;;
9960;SDS011;5021;51.506;11.320;2022-08-19T06:00:46;12.33;;;11.10;;
9960;SDS011;5021;51.506;11.320;2022-08-19T06:03:12;14.13;;;12.63;;
9960;SDS011;5021;51.506;11.320;2022-08-19T06:05:39;12.07;;;10.77;;
9960;SDS011;5021;51.506;11.320;2022-08-19T06:08:04;11.40;;;10.40;;
9960;SDS011;5021;51.506;11.320;2022-08-19T06:10:32;12.33;;;11.13;;
9960;SDS011;5021;51.506;11.320;2022-08-19T06:12:58;12.40;;;11.10;;
9960;SDS011;5021;51.506;11.320;2022-08-19T06:15:24;11.73;;;10.47;;
9960;SDS011;5021;51.506;11.320;2022-08-19T06:17:53;11.50;;;10.27;;
9960;SDS011;5021;51.506;11.320;2022-08-19T06:20:19;10.00;;;9.10;;
9960;SDS011;5021;51.506;11.320;2022-08-19T06:22:45;11.23;;;10.13;;
9960;SDS011;5021;51.506;11.320;2022-08-19T06:25:13;12.43;;;10.97;;
9960;SDS011;5021;51.506;11.320;2022-08-19T06:27:39;9.53;;;8.63;;
9960;SDS011;5021;51.506;11.320;2022-08-19T06:30:06;12.37;;;10.10;;
9960;SDS011;5021;51.506;11.320;2022-08-19T06:32:32;10.33;;;9.40;;
9960;SDS011;5021;51.506;11.320;2022-08-19T06:34:58;11.37;;;10.17;;
9960;SDS011;5021;51.506;11.320;2022-08-19T06:37:24;12.10;;;10.87;;
9960;SDS011;5021;51.506;11.320;2022-08-19T06:39:50;13.10;;;11.70;;
9960;SDS011;5021;51.506;11.320;2022-08-19T06:42:16;12.83;;;11.53;;
9960;SDS011;5021;51.506;11.320;2022-08-19T06:44:44;11.93;;;10.83;;
9960;SDS011;5021;51.506;11.320;2022-08-19T06:47:12;13.83;;;12.23;;
9960;SDS011;5021;51.506;11.320;2022-08-19T06:49:39;13.47;;;12.00;;
9960;SDS011;5021;51.506;11.320;2022-08-19T06:52:05;13.70;;;12.30;;
9960;SDS011;5021;51.506;11.320;2022-08-19T06:54:31;15.97;;;14.37;;
9960;SDS011;5021;51.506;11.320;2022-08-19T06:56:58;14.07;;;12.70;;
9960;SDS011;5021;51.506;11.320;2022-08-19T06:59:29;15.27;;;13.67;;
9960;SDS011;5021;51.506;11.320;2022-08-19T07:01:57;15.10;;;13.60;;
9960;SDS011;5021;51.506;11.320;2022-08-19T07:04:28;16.20;;;14.63;;
9960;SDS011;5021;51.506;11.320;2022-08-19T07:07:00;16.13;;;14.63;;
9960;SDS011;5021;51.506;11.320;2022-08-19T07:09:27;16.10;;;14.50;;
9960;SDS011;5021;51.506;11.320;2022-08-19T07:11:53;14.87;;;13.40;;
9960;SDS011;5021;51.506;11.320;2022-08-19T07:14:21;16.17;;;14.67;;
9960;SDS011;5021;51.506;11.320;2022-08-19T07:16:49;15.63;;;14.13;;
9960;SDS011;5021;51.506;11.320;2022-08-19T07:19:16;15.70;;;14.20;;
9960;SDS011;5021;51.506;11.320;2022-08-19T07:21:43;15.53;;;13.93;;
9960;SDS011;5021;51.506;11.320;2022-08-19T07:24:09;14.00;;;12.73;;
9960;SDS011;5021;51.506;11.320;2022-08-19T07:26:39;13.70;;;12.50;;
9960;SDS011;5021;51.506;11.320;2022-08-19T07:29:05;14.23;;;12.93;;
9960;SDS011;5021;51.506;11.320;2022-08-19T07:31:32;13.63;;;11.03;;
9960;SDS011;5021;51.506;11.320;2022-08-19T07:34:02;12.80;;;11.70;;
9960;SDS011;5021;51.506;11.320;2022-08-19T07:36:32;12.07;;;10.87;;
9960;SDS011;5021;51.506;11.320;2022-08-19T07:38:59;12.53;;;11.23;;
9960;SDS011;5021;51.506;11.320;2022-08-19T07:41:27;10.23;;;9.33;;
9960;SDS011;5021;51.506;11.320;2022-08-19T07:43:53;10.33;;;8.80;;
9960;SDS011;5021;51.506;11.320;2022-08-19T07:46:20;10.43;;;9.40;;
9960;SDS011;5021;51.506;11.320;2022-08-19T07:48:47;11.23;;;10.17;;
9960;SDS011;5021;51.506;11.320;2022-08-19T07:51:15;10.33;;;9.33;;
9960;SDS011;5021;51.506;11.320;2022-08-19T07:53:42;9.33;;;8.53;;
9960;SDS011;5021;51.506;11.320;2022-08-19T07:56:10;9.73;;;8.83;;
9960;SDS011;5021;51.506;11.320;2022-08-19T07:58:37;11.07;;;9.93;;
9960;SDS011;5021;51.506;11.320;2022-08-19T08:01:05;10.40;;;9.40;;
9960;SDS011;5021;51.506;11.320;2022-08-19T08:03:31;9.37;;;8.47;;
9960;SDS011;5021;51.506;11.320;2022-08-19T08:06:15;9.83;;;8.80;;
9960;SDS011;5021;51.506;11.320;2022-08-19T08:09:00;9.90;;;8.90;;
9960;SDS011;5021;51.506;11.320;2022-08-19T08:11:39;9.03;;;8.23;;
9960;SDS011;5021;51.506;11.320;2022-08-19T08:14:07;9.53;;;8.63;;
9960;SDS011;5021;51.506;11.320;2022-08-19T08:16:37;11.97;;;8.70;;
9960;SDS011;5021;51.506;11.320;2022-08-19T08:19:04;8.50;;;7.80;;
9960;SDS011;5021;51.506;11.320;2022-08-19T08:21:31;9.40;;;8.33;;
9960;SDS011;5021;51.506;11.320;2022-08-19T08:23:57;9.77;;;8.90;;
9960;SDS011;5021;51.506;11.320;2022-08-19T08:26:23;9.73;;;8.93;;
9960;SDS011;5021;51.506;11.320;2022-08-19T08:28:49;9.37;;;8.47;;
9960;SDS011;5021;51.506;11.320;2022-08-19T08:31:15;10.73;;;9.83;;
9960;SDS011;5021;51.506;11.320;2022-08-19T08:33:43;10.50;;;9.57;;
9960;SDS011;5021;51.506;11.320;2022-08-19T08:36:10;10.90;;;9.87;;
9960;SDS011;5021;51.506;11.320;2022-08-19T08:38:36;11.77;;;10.67;;
9960;SDS011;5021;51.506;11.320;2022-08-19T08:41:08;12.57;;;11.30;;
9960;SDS011;5021;51.506;11.320;2022-08-19T08:43:35;12.07;;;10.97;;
9960;SDS011;5021;51.506;11.320;2022-08-19T08:46:04;12.33;;;11.13;;
9960;SDS011;5021;51.506;11.320;2022-08-19T08:48:51;11.67;;;10.67;;
9960;SDS011;5021;51.506;11.320;2022-08-19T08:51:24;11.03;;;10.10;;
9960;SDS011;5021;51.506;11.320;2022-08-19T08:53:51;10.40;;;9.50;;
9960;SDS011;5021;51.506;11.320;2022-08-19T08:56:18;11.33;;;10.33;;
9960;SDS011;5021;51.506;11.320;2022-08-19T09:01:10;12.40;;;11.20;;
9960;SDS011;5021;51.506;11.320;2022-08-19T09:03:37;12.30;;;11.20;;
9960;SDS011;5021;51.506;11.320;2022-08-19T09:06:26;11.27;;;10.27;;
9960;SDS011;5021;51.506;11.320;2022-08-19T09:09:03;13.00;;;11.73;;
9960;SDS011;5021;51.506;11.320;2022-08-19T09:16:44;12.60;;;11.40;;
9960;SDS011;5021;51.506;11.320;2022-08-19T09:19:09;11.97;;;10.87;;
9960;SDS011;5021;51.506;11.320;2022-08-19T09:21:36;11.10;;;10.03;;
9960;SDS011;5021;51.506;11.320;2022-08-19T09:24:03;10.43;;;9.50;;
9960;SDS011;5021;51.506;11.320;2022-08-19T09:26:30;9.80;;;9.00;;
9960;SDS011;5021;51.506;11.320;2022-08-19T09:28:57;9.77;;;8.97;;
9960;SDS011;5021;51.506;11.320;2022-08-19T09:31:25;9.63;;;8.73;;
9960;SDS011;5021;51.506;11.320;2022-08-19T09:33:52;8.60;;;7.90;;
9960;SDS011;5021;51.506;11.320;2022-08-19T09:36:22;9.00;;;8.20;;
9960;SDS011;5021;51.506;11.320;2022-08-19T09:38:49;8.93;;;8.13;;
9960;SDS011;5021;51.506;11.320;2022-08-19T09:41:18;8.40;;;7.60;;
9960;SDS011;5021;51.506;11.320;2022-08-19T09:43:45;9.90;;;8.30;;
9960;SDS011;5021;51.506;11.320;2022-08-19T09:46:11;8.27;;;7.57;;
9960;SDS011;5021;51.506;11.320;2022-08-19T09:48:41;9.13;;;8.23;;
9960;SDS011;5021;51.506;11.320;2022-08-19T09:53:37;9.30;;;8.50;;
9960;SDS011;5021;51.506;11.320;2022-08-19T09:56:03;9.00;;;8.07;;
9960;SDS011;5021;51.506;11.320;2022-08-19T09:58:30;9.40;;;8.50;;
9960;SDS011;5021;51.506;11.320;2022-08-19T10:00:57;14.17;;;8.23;;
9960;SDS011;5021;51.506;11.320;2022-08-19T10:03:23;9.07;;;8.27;;
9960;SDS011;5021;51.506;11.320;2022-08-19T10:05:49;8.53;;;7.77;;
9960;SDS011;5021;51.506;11.320;2022-08-19T10:08:26;8.83;;;8.03;;
9960;SDS011;5021;51.506;11.320;2022-08-19T10:10:52;8.50;;;7.80;;
9960;SDS011;5021;51.506;11.320;2022-08-19T10:13:20;8.93;;;8.03;;
9960;SDS011;5021;51.506;11.320;2022-08-19T10:15:48;9.03;;;8.30;;
9960;SDS011;5021;51.506;11.320;2022-08-19T10:18:18;8.77;;;8.10;;
9960;SDS011;5021;51.506;11.320;2022-08-19T10:20:45;8.40;;;7.70;;
9960;SDS011;5021;51.506;11.320;2022-08-19T10:23:11;8.60;;;7.80;;
9960;SDS011;5021;51.506;11.320;2022-08-19T10:25:37;7.33;;;6.73;;
9960;SDS011;5021;51.506;11.320;2022-08-19T10:28:04;6.97;;;6.37;;
9960;SDS011;5021;51.506;11.320;2022-08-19T10:30:33;7.00;;;6.40;;
9960;SDS011;5021;51.506;11.320;2022-08-19T10:33:00;6.67;;;6.10;;
9960;SDS011;5021;51.506;11.320;2022-08-19T10:35:26;6.50;;;6.00;;
9960;SDS011;5021;51.506;11.320;2022-08-19T10:37:54;6.10;;;5.60;;
9960;SDS011;5021;51.506;11.320;2022-08-19T10:40:24;5.60;;;5.13;;
9960;SDS011;5021;51.506;11.320;2022-08-19T10:42:50;5.30;;;4.90;;
9960;SDS011;5021;51.506;11.320;2022-08-19T10:45:16;5.43;;;5.03;;
9960;SDS011;5021;51.506;11.320;2022-08-19T10:47:42;4.07;;;3.70;;
9960;SDS011;5021;51.506;11.320;2022-08-19T10:50:08;3.90;;;3.50;;
9960;SDS011;5021;51.506;11.320;2022-08-19T10:52:53;4.17;;;3.77;;
9960;SDS011;5021;51.506;11.320;2022-08-19T10:55:20;5.13;;;4.43;;
9960;SDS011;5021;51.506;11.320;2022-08-19T10:58:10;4.27;;;3.90;;
9960;SDS011;5021;51.506;11.320;2022-08-19T11:00:36;5.13;;;4.27;;
9960;SDS011;5021;51.506;11.320;2022-08-19T11:03:02;4.97;;;4.53;;
9960;SDS011;5021;51.506;11.320;2022-08-19T11:05:28;4.83;;;4.27;;
9960;SDS011;5021;51.506;11.320;2022-08-19T11:07:55;4.97;;;4.53;;
9960;SDS011;5021;51.506;11.320;2022-08-19T11:10:21;5.00;;;4.60;;
9960;SDS011;5021;51.506;11.320;2022-08-19T11:12:48;4.97;;;4.50;;
9960;SDS011;5021;51.506;11.320;2022-08-19T11:15:19;5.07;;;4.60;;
9960;SDS011;5021;51.506;11.320;2022-08-19T11:17:45;4.90;;;4.50;;
9960;SDS011;5021;51.506;11.320;2022-08-19T11:20:12;4.63;;;4.23;;
9960;SDS011;5021;51.506;11.320;2022-08-19T11:22:38;5.07;;;4.57;;
9960;SDS011;5021;51.506;11.320;2022-08-19T11:25:05;4.60;;;4.20;;
9960;SDS011;5021;51.506;11.320;2022-08-19T11:27:31;5.97;;;4.87;;
9960;SDS011;5021;51.506;11.320;2022-08-19T11:29:58;5.07;;;4.57;;
9960;SDS011;5021;51.506;11.320;2022-08-19T11:32:25;4.80;;;4.40;;
9960;SDS011;5021;51.506;11.320;2022-08-19T11:34:51;4.60;;;4.20;;
9960;SDS011;5021;51.506;11.320;2022-08-19T11:37:17;4.90;;;4.50;;
9960;SDS011;5021;51.506;11.320;2022-08-19T11:39:43;5.17;;;4.77;;
9960;SDS011;5021;51.506;11.320;2022-08-19T11:42:09;6.30;;;5.27;;
9960;SDS011;5021;51.506;11.320;2022-08-19T11:44:54;5.03;;;4.63;;
9960;SDS011;5021;51.506;11.320;2022-08-19T11:47:20;5.20;;;4.70;;
9960;SDS011;5021;51.506;11.320;2022-08-19T11:49:46;4.50;;;4.10;;
9960;SDS011;5021;51.506;11.320;2022-08-19T11:52:12;4.70;;;4.30;;
9960;SDS011;5021;51.506;11.320;2022-08-19T11:54:39;4.87;;;4.47;;
9960;SDS011;5021;51.506;11.320;2022-08-19T11:57:05;4.50;;;4.20;;
9960;SDS011;5021;51.506;11.320;2022-08-19T11:59:31;4.70;;;4.30;;
9960;SDS011;5021;51.506;11.320;2022-08-19T12:01:57;4.87;;;4.33;;
9960;SDS011;5021;51.506;11.320;2022-08-19T12:04:24;4.37;;;3.97;;
9960;SDS011;5021;51.506;11.320;2022-08-19T12:06:50;3.83;;;3.53;;
9960;SDS011;5021;51.506;11.320;2022-08-19T12:09:16;4.43;;;4.07;;
9960;SDS011;5021;51.506;11.320;2022-08-19T12:11:42;4.50;;;4.10;;
9960;SDS011;5021;51.506;11.320;2022-08-19T12:14:10;4.60;;;4.20;;
9960;SDS011;5021;51.506;11.320;2022-08-19T12:16:36;4.13;;;3.80;;
9960;SDS011;5021;51.506;11.320;2022-08-19T12:19:03;4.40;;;4.00;;
9960;SDS011;5021;51.506;11.320;2022-08-19T12:21:30;4.03;;;3.67;;
9960;SDS011;5021;51.506;11.320;2022-08-19T12:23:58;4.53;;;4.13;;
9960;SDS011;5021;51.506;11.320;2022-08-19T12:26:25;5.33;;;4.93;;
9960;SDS011;5021;51.506;11.320;2022-08-19T12:28:51;6.03;;;5.53;;
9960;SDS011;5021;51.506;11.320;2022-08-19T12:31:17;6.57;;;6.07;;
9960;SDS011;5021;51.506;11.320;2022-08-19T12:33:44;6.90;;;6.40;;
9960;SDS011;5021;51.506;11.320;2022-08-19T12:36:11;7.57;;;6.87;;
9960;SDS011;5021;51.506;11.320;2022-08-19T12:38:38;7.23;;;6.53;;
9960;SDS011;5021;51.506;11.320;2022-08-19T12:41:05;7.27;;;6.70;;
9960;SDS011;5021;51.506;11.320;2022-08-19T12:43:32;7.70;;;7.00;;
9960;SDS011;5021;51.506;11.320;2022-08-19T12:45:59;7.77;;;7.07;;
9960;SDS011;5021;51.506;11.320;2022-08-19T12:48:25;8.40;;;7.60;;
9960;SDS011;5021;51.506;11.320;2022-08-19T12:50:52;8.80;;;8.00;;
9960;SDS011;5021;51.506;11.320;2022-08-19T12:53:19;8.23;;;7.53;;
9960;SDS011;5021;51.506;11.320;2022-08-19T12:55:45;9.90;;;9.00;;
9960;SDS011;5021;51.506;11.320;2022-08-19T12:58:11;8.63;;;7.83;;
9960;SDS011;5021;51.506;11.320;2022-08-19T13:00:37;9.30;;;8.40;;
9960;SDS011;5021;51.506;11.320;2022-08-19T13:03:04;9.10;;;8.20;;
9960;SDS011;5021;51.506;11.320;2022-08-19T13:05:31;10.27;;;8.20;;
9960;SDS011;5021;51.506;11.320;2022-08-19T13:07:58;9.53;;;8.73;;
9960;SDS011;5021;51.506;11.320;2022-08-19T13:10:29;10.13;;;9.23;;
9960;SDS011;5021;51.506;11.320;2022-08-19T13:12:56;10.33;;;9.43;;
9960;SDS011;5021;51.506;11.320;2022-08-19T13:15:24;10.43;;;9.53;;
9960;SDS011;5021;51.506;11.320;2022-08-19T13:17:53;9.93;;;9.03;;
9960;SDS011;5021;51.506;11.320;2022-08-19T13:20:21;9.87;;;8.97;;
9960;SDS011;5021;51.506;11.320;2022-08-19T13:22:47;9.57;;;8.63;;
9960;SDS011;5021;51.506;11.320;2022-08-19T13:25:14;8.70;;;8.00;;
9960;SDS011;5021;51.506;11.320;2022-08-19T13:27:42;9.60;;;8.70;;
9960;SDS011;5021;51.506;11.320;2022-08-19T13:30:09;10.37;;;9.33;;
9960;SDS011;5021;51.506;11.320;2022-08-19T13:32:54;9.07;;;8.13;;
9960;SDS011;5021;51.506;11.320;2022-08-19T13:35:41;10.43;;;8.63;;
9960;SDS011;5021;51.506;11.320;2022-08-19T13:38:07;9.33;;;8.43;;
9960;SDS011;5021;51.506;11.320;2022-08-19T13:40:34;9.33;;;8.43;;
9960;SDS011;5021;51.506;11.320;2022-08-19T13:43:01;9.40;;;8.60;;
9960;SDS011;5021;51.506;11.320;2022-08-19T13:45:28;9.23;;;8.33;;
9960;SDS011;5021;51.506;11.320;2022-08-19T13:47:55;8.77;;;8.07;;
9960;SDS011;5021;51.506;11.320;2022-08-19T13:50:23;10.37;;;9.30;;
9960;SDS011;5021;51.506;11.320;2022-08-19T13:52:51;8.50;;;7.80;;
9960;SDS011;5021;51.506;11.320;2022-08-19T13:55:17;8.27;;;7.57;;
9960;SDS011;5021;51.506;11.320;2022-08-19T13:57:43;7.90;;;7.20;;
9960;SDS011;5021;51.506;11.320;2022-08-19T14:00:13;9.13;;;8.30;;
9960;SDS011;5021;51.506;11.320;2022-08-19T14:02:40;8.27;;;7.57;;
9960;SDS011;5021;51.506;11.320;2022-08-19T14:05:08;8.43;;;7.63;;
9960;SDS011;5021;51.506;11.320;2022-08-19T14:07:34;8.33;;;7.63;;
9960;SDS011;5021;51.506;11.320;2022-08-19T14:10:01;8.53;;;7.83;;
9960;SDS011;5021;51.506;11.320;2022-08-19T14:12:28;8.20;;;7.50;;
9960;SDS011;5021;51.506;11.320;2022-08-19T14:14:54;8.60;;;7.80;;
9960;SDS011;5021;51.506;11.320;2022-08-19T14:17:20;7.93;;;7.33;;
9960;SDS011;5021;51.506;11.320;2022-08-19T14:19:46;8.13;;;7.40;;
9960;SDS011;5021;51.506;11.320;2022-08-19T14:22:13;8.13;;;7.40;;
9960;SDS011;5021;51.506;11.320;2022-08-19T14:24:38;8.37;;;7.57;;
9960;SDS011;5021;51.506;11.320;2022-08-19T14:27:05;8.63;;;7.77;;
9960;SDS011;5021;51.506;11.320;2022-08-19T14:29:31;8.93;;;7.27;;
9960;SDS011;5021;51.506;11.320;2022-08-19T14:31:57;8.00;;;7.40;;
9960;SDS011;5021;51.506;11.320;2022-08-19T14:34:24;8.47;;;7.67;;
9960;SDS011;5021;51.506;11.320;2022-08-19T14:36:51;8.67;;;7.93;;
9960;SDS011;5021;51.506;11.320;2022-08-19T14:39:17;8.03;;;7.43;;
9960;SDS011;5021;51.506;11.320;2022-08-19T14:41:43;8.23;;;7.60;;
9960;SDS011;5021;51.506;11.320;2022-08-19T14:44:10;8.13;;;7.43;;
9960;SDS011;5021;51.506;11.320;2022-08-19T14:46:38;8.47;;;7.77;;
9960;SDS011;5021;51.506;11.320;2022-08-19T14:49:04;8.37;;;7.67;;
9960;SDS011;5021;51.506;11.320;2022-08-19T14:51:30;9.57;;;8.67;;
9960;SDS011;5021;51.506;11.320;2022-08-19T14:53:57;9.10;;;8.30;;
9960;SDS011;5021;51.506;11.320;2022-08-19T14:56:24;8.57;;;7.87;;
9960;SDS011;5021;51.506;11.320;2022-08-19T14:58:51;8.90;;;8.20;;